createdAt,value
2022-11-16T00:05:06.872Z,10.8
2022-11-16T00:15:09.029Z,10.6
2022-11-16T00:25:10.798Z,10.5
2022-11-16T00:35:12.838Z,10.5
2022-11-16T00:45:14.556Z,10.4
2022-11-16T00:55:16.794Z,10.3
2022-11-16T01:15:21.641Z,10.3
2022-11-16T01:55:31.114Z,10.2
2022-11-16T02:05:33.582Z,10.2
2022-11-16T02:15:35.994Z,10.1
2022-11-16T02:25:37.887Z,10.1
2022-11-16T03:05:46.435Z,10.2
2022-11-16T03:15:48.651Z,10.2
2022-11-16T03:25:50.614Z,10.2
2022-11-16T03:35:52.814Z,10.2
2022-11-16T03:45:55.048Z,10.3
2022-11-16T03:55:57.572Z,10.3
2022-11-16T04:06:00.164Z,10.2
2022-11-16T04:16:01.876Z,10.2
2022-11-16T04:26:03.879Z,10.1
2022-11-16T04:36:06.378Z,10.2
2022-11-16T04:46:08.264Z,10.2
2022-11-16T04:56:10.336Z,10.2
2022-11-16T05:06:12.785Z,10.2
2022-11-16T05:16:15.154Z,10.2
2022-11-16T05:26:17.045Z,10.2
2022-11-16T05:36:18.825Z,10.2
2022-11-16T05:46:20.478Z,10.2
2022-11-16T05:56:22.832Z,10.1
2022-11-16T06:06:24.687Z,10.2
2022-11-16T06:16:26.387Z,10.2
2022-11-16T06:36:30.135Z,10.1
2022-11-16T06:46:32.264Z,10
2022-11-16T06:56:34.532Z,10
2022-11-16T07:06:36.191Z,10
2022-11-16T07:16:38.546Z,10
2022-11-16T07:36:42.441Z,10.2
2022-11-16T07:46:46.912Z,10.2
2022-11-16T07:56:46.182Z,10.3
2022-11-16T08:06:48.872Z,10.4
2022-11-16T08:16:51.342Z,10.4
2022-11-16T08:26:53.614Z,10.4
2022-11-16T08:36:55.363Z,10.5
2022-11-16T08:46:57.679Z,10.6
2022-11-16T08:56:59.848Z,11.2
2022-11-16T09:07:02.054Z,12
2022-11-16T09:17:04.183Z,11.5
2022-11-16T09:27:06.412Z,11.9
2022-11-16T09:37:08.477Z,12.2
2022-11-16T09:47:10.896Z,11.6
2022-11-16T09:57:12.923Z,11.5
2022-11-16T10:07:15.275Z,12.3
2022-11-16T10:27:22.081Z,12.4
2022-11-16T10:37:22.391Z,12.8
2022-11-16T10:47:27.092Z,12.5
2022-11-16T10:57:26.299Z,11.8
2022-11-16T11:07:28.822Z,12.8
2022-11-16T11:17:30.960Z,12.2
2022-11-16T11:27:33.223Z,11.7
2022-11-16T11:37:34.860Z,11.5
2022-11-16T11:47:57.735Z,11.5
2022-11-16T11:57:39.292Z,11.3
2022-11-16T12:07:41.096Z,11.6
2022-11-16T12:37:46.632Z,12
2022-11-16T12:47:48.997Z,12.2
2022-11-16T12:57:50.767Z,12
2022-11-16T13:17:55.158Z,12.2
2022-11-16T13:27:57.202Z,11.9
2022-11-16T13:37:59.593Z,12.1
2022-11-16T13:48:01.467Z,12.2
2022-11-16T13:58:03.198Z,12
2022-11-16T13:58:10.102Z,12
2022-11-16T14:08:12.442Z,11.8
2022-11-16T14:18:14.658Z,11.9
2022-11-16T14:28:16.856Z,11.9
2022-11-16T14:38:19.342Z,11.9
2022-11-16T14:48:21.382Z,11.7
2022-11-16T14:58:23.530Z,11.7
2022-11-16T15:08:26.120Z,11.7
2022-11-16T15:18:28.126Z,11.6
2022-11-16T15:28:30.271Z,11.7
2022-11-16T15:38:31.973Z,11.7
2022-11-16T15:48:34.505Z,11.3
2022-11-16T15:58:36.490Z,11
2022-11-16T16:18:40.708Z,10.6
2022-11-16T16:48:47.402Z,10.1
2022-11-16T17:49:00.488Z,10.5
2022-11-16T17:59:02.826Z,10.5
2022-11-16T18:09:05.230Z,10.5
2022-11-16T18:19:06.963Z,10.5
2022-11-16T18:29:08.880Z,10.3
2022-11-16T18:39:10.823Z,10.2
2022-11-16T18:59:14.620Z,9.8
2022-11-16T19:09:16.853Z,9.6
2022-11-16T19:19:19.058Z,9.6
2022-11-16T19:29:20.879Z,9.5
2022-11-16T20:09:29.390Z,9.1
2022-11-16T20:29:32.840Z,8.9
2022-11-16T20:59:39.312Z,8.7
2022-11-16T21:09:41.280Z,8.8
2022-11-16T21:19:54.389Z,8.9
2022-11-16T21:29:45.983Z,8.8
2022-11-16T21:39:47.849Z,8.8
2022-11-16T21:50:16.676Z,8.8
2022-11-16T21:59:52.386Z,8.8
2022-11-16T22:09:54.919Z,8.9
2022-11-16T22:19:57.527Z,9
2022-11-16T22:30:00.080Z,8.9
2022-11-16T22:40:02.433Z,8.9
2022-11-16T22:50:04.358Z,8.9
2022-11-16T23:00:06.693Z,9
2022-11-16T23:10:09.040Z,8.9
2022-11-16T23:20:14.798Z,9
2022-11-16T23:40:15.377Z,9.3
2022-11-16T23:50:17.772Z,9.3
